Time;durP1;ratioP1;P1;durP2;ratioP2;P2;SDS_P1;SDS_P2;PMS_P1;PMS_P2;Temp;Humidity;BMP_temperature;BMP_pressure;BME280_temperature;BME280_humidity;BME280_pressure;Samples;Min_cycle;Max_cycle;Signal;HPM_P1;HPM_P2
2022/08/04 00:02:26;;;;;;;2.03;1.50;;;26.70;99.90;;;;;;5021659;28;20255;-94
2022/08/04 00:05:07;;;;;;;1.53;1.33;;;27.00;99.90;;;;;;5021427;28;20217;-94
2022/08/04 00:07:44;;;;;;;1.23;1.13;;;27.30;99.90;;;;;;5020001;28;20205;-94
2022/08/04 00:10:25;;;;;;;1.87;1.53;;;27.00;99.90;;;;;;5019360;28;20205;-94
2022/08/04 00:13:00;;;;;;;1.60;1.30;;;27.10;99.90;;;;;;5022141;28;20284;-92
2022/08/04 00:15:33;;;;;;;2.80;1.30;;;27.40;99.90;;;;;;5021818;28;20237;-94
2022/08/04 00:18:10;;;;;;;3.17;1.50;;;26.70;99.90;;;;;;5020589;28;20264;-93
2022/08/04 00:23:36;;;;;;;3.10;1.37;;;26.90;99.90;;;;;;5077284;23;20241;-95
2022/08/04 00:26:28;;;;;;;2.17;1.40;;;27.00;99.90;;;;;;5024112;28;20276;-94
2022/08/04 00:28:59;;;;;;;3.30;1.60;;;26.60;99.90;;;;;;5034565;28;20202;-93
2022/08/04 00:31:31;;;;;;;3.47;1.60;;;26.50;99.90;;;;;;5035390;28;20228;-93
2022/08/04 00:34:25;;;;;;;2.93;1.60;;;26.70;99.90;;;;;;5035567;28;20190;-93
2022/08/04 00:36:59;;;;;;;2.90;1.50;;;26.50;99.90;;;;;;5034492;28;20205;-93
2022/08/04 00:39:35;;;;;;;2.97;1.40;;;26.40;99.90;;;;;;5036906;28;20202;-93
2022/08/04 00:42:28;;;;;;;2.80;1.50;;;26.20;99.90;;;;;;5035100;28;20209;-93
2022/08/04 00:45:22;;;;;;;2.27;1.50;;;26.00;99.90;;;;;;5037017;28;20201;-93
2022/08/04 00:48:06;;;;;;;3.10;1.77;;;26.10;99.90;;;;;;5024672;28;20206;-93
2022/08/04 00:50:46;;;;;;;4.20;1.80;;;26.40;99.90;;;;;;5023325;28;20221;-93
2022/08/04 00:53:29;;;;;;;1.77;1.50;;;26.10;99.90;;;;;;5021485;28;20301;-93
2022/08/04 00:56:31;;;;;;;2.27;1.53;;;26.20;99.90;;;;;;5024020;28;20213;-93
2022/08/04 00:59:10;;;;;;;2.23;2.00;;;25.20;99.90;;;;;;5025930;28;20256;-92
2022/08/04 01:01:59;;;;;;;3.43;1.53;;;25.40;99.90;;;;;;5034024;28;20209;-92
2022/08/04 01:04:46;;;;;;;2.63;2.20;;;25.50;99.90;;;;;;5033828;28;20220;-92
2022/08/04 01:07:32;;;;;;;2.13;1.80;;;25.40;99.90;;;;;;5028032;28;20209;-93
2022/08/04 01:10:11;;;;;;;2.50;1.70;;;25.50;99.90;;;;;;5027532;28;20194;-93
2022/08/04 01:13:05;;;;;;;2.33;1.80;;;25.90;99.90;;;;;;5001605;28;20238;-92
2022/08/04 01:15:54;;;;;;;3.07;1.90;;;26.10;99.90;;;;;;5008970;28;20210;-93
2022/08/04 01:18:42;;;;;;;2.70;1.97;;;26.00;99.90;;;;;;5020755;28;20292;-93
2022/08/04 01:21:50;;;;;;;5.50;2.33;;;26.00;99.90;;;;;;5019706;28;20670;-93
2022/08/04 01:24:42;;;;;;;3.23;2.00;;;26.80;99.90;;;;;;5001690;28;20588;-92
2022/08/04 01:27:27;;;;;;;3.40;2.03;;;27.50;99.90;;;;;;4998744;28;20313;-93
2022/08/04 01:30:09;;;;;;;2.47;2.27;;;27.40;99.90;;;;;;5002045;28;20205;-93
2022/08/04 01:32:44;;;;;;;3.87;2.30;;;27.40;99.90;;;;;;5013493;28;20232;-93
2022/08/04 01:35:25;;;;;;;3.90;2.27;;;26.60;99.90;;;;;;5016131;28;20209;-93
2022/08/04 01:38:24;;;;;;;6.43;2.30;;;27.10;99.90;;;;;;5005096;28;20293;-93
2022/08/04 01:41:01;;;;;;;2.53;2.33;;;26.80;99.90;;;;;;5003471;28;20213;-93
2022/08/04 01:43:34;;;;;;;5.00;2.60;;;26.20;99.90;;;;;;5004316;28;20281;-93
2022/08/04 01:46:07;;;;;;;4.03;2.97;;;26.00;99.90;;;;;;5005045;28;20210;-93
2022/08/04 01:48:40;;;;;;;3.13;2.20;;;26.50;99.90;;;;;;5003201;28;20667;-93
2022/08/04 01:51:12;;;;;;;3.00;2.73;;;26.80;99.90;;;;;;5019202;28;20233;-94
2022/08/04 01:53:44;;;;;;;3.37;2.50;;;26.50;99.90;;;;;;5009105;28;20222;-95
2022/08/04 01:56:21;;;;;;;3.33;2.27;;;26.50;99.90;;;;;;5011765;28;20210;-93
2022/08/04 01:58:52;;;;;;;2.50;2.30;;;25.70;99.90;;;;;;5004431;28;20237;-93
2022/08/04 02:01:26;;;;;;;3.93;2.33;;;25.60;99.90;;;;;;5004443;28;20285;-93
2022/08/04 02:03:57;;;;;;;2.87;2.50;;;25.50;99.90;;;;;;5002086;28;20206;-94
2022/08/04 02:07:03;;;;;;;3.03;2.73;;;25.40;99.90;;;;;;5002342;28;20301;-94
2022/08/04 02:09:44;;;;;;;3.53;2.70;;;24.50;99.90;;;;;;5003973;28;20300;-93
2022/08/04 02:12:32;;;;;;;2.53;2.33;;;23.50;99.90;;;;;;5000942;28;20221;-95
2022/08/04 02:15:14;;;;;;;3.50;2.80;;;23.20;99.90;;;;;;5021427;28;20312;-95
2022/08/04 02:18:11;;;;;;;3.13;2.33;;;23.20;99.90;;;;;;5040556;28;20205;-96
2022/08/04 02:20:47;;;;;;;2.73;2.53;;;22.80;99.90;;;;;;5040283;28;20212;-95
2022/08/04 02:23:34;;;;;;;3.30;2.50;;;22.60;99.90;;;;;;5043450;28;20296;-95
2022/08/04 02:26:07;;;;;;;3.00;2.50;;;22.50;99.90;;;;;;5043568;28;20262;-96
2022/08/04 02:28:57;;;;;;;3.33;2.37;;;22.40;99.90;;;;;;5042652;28;20205;-95
2022/08/04 02:31:34;;;;;;;7.37;2.60;;;21.80;99.90;;;;;;5043608;28;20201;-95
2022/08/04 02:34:10;;;;;;;3.03;2.30;;;21.70;99.90;;;;;;5041940;28;20232;-95
2022/08/04 02:36:43;;;;;;;3.47;2.70;;;21.50;99.90;;;;;;5042483;28;20224;-95
2022/08/04 02:39:18;;;;;;;3.37;2.50;;;21.30;99.90;;;;;;5039797;28;20217;-94
2022/08/04 02:41:51;;;;;;;3.50;2.30;;;21.40;99.90;;;;;;5038542;28;20193;-95
2022/08/04 02:44:24;;;;;;;3.13;2.00;;;21.40;99.90;;;;;;5040285;28;20237;-95
2022/08/04 02:46:56;;;;;;;2.27;2.07;;;21.30;99.90;;;;;;5039682;28;20209;-95
2022/08/04 02:49:31;;;;;;;2.57;1.90;;;21.10;99.90;;;;;;5040701;28;20271;-95
2022/08/04 02:52:04;;;;;;;4.00;2.10;;;21.10;99.90;;;;;;5041697;28;20653;-94
2022/08/04 03:00:18;;;;;;;2.77;1.77;;;20.70;99.90;;;;;;5042148;28;20592;-96
2022/08/04 03:03:00;;;;;;;2.13;1.83;;;20.60;99.90;;;;;;5040490;28;20649;-95
2022/08/04 03:05:52;;;;;;;1.70;1.60;;;20.20;99.90;;;;;;5029966;28;20220;-94
2022/08/04 03:08:54;;;;;;;1.73;1.63;;;20.00;99.90;;;;;;5020571;28;20629;-95
2022/08/04 03:11:52;;;;;;;1.50;1.40;;;19.80;99.90;;;;;;5020533;28;20213;-95
2022/08/04 03:14:46;;;;;;;3.00;1.50;;;19.70;99.90;;;;;;5019696;28;20229;-94
2022/08/04 03:20:53;;;;;;;1.77;1.60;;;19.60;99.90;;;;;;5254985;23;20240;-94
2022/08/04 03:23:56;;;;;;;2.70;1.50;;;19.50;99.90;;;;;;5020966;28;20217;-94
2022/08/04 03:27:06;;;;;;;3.03;1.60;;;19.40;99.90;;;;;;5004980;28;20236;-94
2022/08/04 03:30:13;;;;;;;3.33;1.80;;;19.40;99.90;;;;;;5009665;28;20240;-94
2022/08/04 03:47:32;;;;;;;2.13;1.90;;;18.60;99.90;;;;;;5016561;28;20209;-92
2022/08/04 03:50:33;;;;;;;4.03;1.97;;;18.50;99.90;;;;;;5006978;28;20240;-94
2022/08/04 03:53:35;;;;;;;3.67;1.60;;;18.50;99.90;;;;;;5010360;28;20221;-93
2022/08/04 03:59:38;;;;;;;1.67;1.57;;;18.20;99.90;;;;;;4927359;29;20259;-92
2022/08/04 04:03:03;;;;;;;2.27;1.53;;;18.20;99.90;;;;;;4924634;29;20240;-92
2022/08/04 04:06:08;;;;;;;1.57;1.30;;;18.10;99.90;;;;;;4929136;29;20593;-93
2022/08/04 04:09:20;;;;;;;2.07;1.50;;;18.10;99.90;;;;;;4909954;29;20210;-93
2022/08/04 04:12:29;;;;;;;2.30;1.43;;;17.90;99.90;;;;;;4910840;29;20209;-94
2022/08/04 04:18:38;;;;;;;1.67;1.40;;;17.80;99.90;;;;;;4911359;29;20283;-93
2022/08/04 04:25:32;;;;;;;1.40;1.30;;;17.60;99.90;;;;;;4901449;29;20217;-94
2022/08/04 04:28:31;;;;;;;1.70;1.60;;;17.60;99.90;;;;;;4915428;29;20209;-94
2022/08/04 04:31:35;;;;;;;1.50;1.40;;;17.60;99.90;;;;;;4900990;29;20214;-93
2022/08/04 04:34:27;;;;;;;2.60;1.43;;;17.40;99.90;;;;;;4909145;29;20221;-93
2022/08/04 04:37:14;;;;;;;3.03;1.70;;;17.40;99.90;;;;;;4916022;29;20206;-93
2022/08/04 04:40:18;;;;;;;2.37;1.80;;;17.40;99.90;;;;;;4930423;29;20209;-92
2022/08/04 04:50:18;;;;;;;4.97;1.50;;;17.20;99.90;;;;;;4917026;29;20193;-94
2022/08/04 04:53:22;;;;;;;2.73;1.90;;;17.20;99.90;;;;;;4911005;29;20213;-94
2022/08/04 04:56:34;;;;;;;1.97;1.77;;;17.20;99.90;;;;;;4905868;29;20269;-93
2022/08/04 04:59:11;;;;;;;1.60;1.50;;;16.90;99.90;;;;;;4905347;29;20210;-93
2022/08/04 05:02:09;;;;;;;2.57;1.67;;;17.00;99.90;;;;;;4906326;29;20272;-93
2022/08/04 05:05:06;;;;;;;2.23;1.70;;;16.90;99.90;;;;;;4904790;29;20644;-93
2022/08/04 05:08:08;;;;;;;1.80;1.70;;;17.00;99.90;;;;;;4900630;29;20206;-93
2022/08/04 05:11:20;;;;;;;1.77;1.50;;;17.00;99.90;;;;;;4904574;29;20222;-93
2022/08/04 05:13:55;;;;;;;1.20;1.10;;;16.90;99.90;;;;;;4918879;29;20314;-95
2022/08/04 05:16:50;;;;;;;1.17;1.10;;;16.70;99.90;;;;;;4905418;29;20280;-93
2022/08/04 05:19:26;;;;;;;1.20;1.10;;;16.70;99.90;;;;;;4905171;29;20236;-94
2022/08/04 05:22:05;;;;;;;1.40;1.00;;;16.80;99.90;;;;;;4920905;29;20217;-94
2022/08/04 05:24:52;;;;;;;1.40;1.00;;;16.80;99.90;;;;;;4922215;29;20228;-94
2022/08/04 05:27:46;;;;;;;0.87;0.87;;;16.70;99.90;;;;;;4922360;29;20602;-94
2022/08/04 05:30:20;;;;;;;1.10;1.00;;;16.70;99.90;;;;;;4920743;29;20239;-96
2022/08/04 05:32:59;;;;;;;0.93;0.87;;;16.80;99.90;;;;;;4926293;29;20327;-94
2022/08/04 05:35:35;;;;;;;1.27;0.70;;;16.80;99.90;;;;;;4935453;29;20670;-94
2022/08/04 05:38:32;;;;;;;2.20;0.80;;;16.60;99.90;;;;;;4920873;29;20264;-94
2022/08/04 05:41:04;;;;;;;0.73;0.67;;;16.60;99.90;;;;;;4919463;29;20216;-94
2022/08/04 05:43:40;;;;;;;2.27;1.00;;;16.60;99.90;;;;;;4922460;29;20241;-95
2022/08/04 05:46:13;;;;;;;1.53;1.00;;;16.60;99.90;;;;;;4921474;29;20216;-94
2022/08/04 05:48:46;;;;;;;0.70;0.70;;;16.50;99.90;;;;;;4923663;29;20213;-95
2022/08/04 05:51:19;;;;;;;0.80;0.80;;;16.50;99.90;;;;;;4922297;29;20236;-94
2022/08/04 05:53:51;;;;;;;0.80;0.80;;;16.50;99.90;;;;;;4923036;29;20216;-94
2022/08/04 05:56:25;;;;;;;3.97;0.90;;;16.50;99.90;;;;;;4922778;29;20729;-94
2022/08/04 05:59:00;;;;;;;1.13;0.77;;;16.30;99.90;;;;;;4922275;29;20205;-95
2022/08/04 06:01:33;;;;;;;1.00;0.83;;;16.30;99.90;;;;;;4920969;29;20221;-94
2022/08/04 06:04:26;;;;;;;0.70;0.70;;;16.20;99.90;;;;;;4922068;29;20300;-95
2022/08/04 06:06:58;;;;;;;1.00;0.90;;;16.20;99.90;;;;;;4922435;29;20209;-94
2022/08/04 06:09:29;;;;;;;0.83;0.83;;;16.20;99.90;;;;;;4928088;29;20221;-95
2022/08/04 06:12:03;;;;;;;0.93;0.80;;;16.10;99.90;;;;;;4937811;29;20223;-94
2022/08/04 06:14:42;;;;;;;1.30;0.90;;;16.10;99.90;;;;;;4938323;29;20237;-94
2022/08/04 06:17:17;;;;;;;1.00;0.80;;;16.10;99.90;;;;;;4923276;29;20194;-95
2022/08/04 06:23:07;;;;;;;1.10;1.00;;;15.90;99.90;;;;;;4919268;29;20312;-95
2022/08/04 06:25:44;;;;;;;1.43;1.00;;;15.80;99.90;;;;;;4939717;29;20217;-95
2022/08/04 06:28:18;;;;;;;1.37;1.27;;;15.80;99.90;;;;;;4942694;29;20212;-94
2022/08/04 06:30:53;;;;;;;1.10;1.00;;;15.80;99.90;;;;;;4941750;29;20186;-94
2022/08/04 06:33:26;;;;;;;1.90;1.53;;;15.90;99.90;;;;;;4940866;29;20203;-94
2022/08/04 06:35:59;;;;;;;1.70;1.60;;;15.80;99.90;;;;;;4941097;29;20216;-94
2022/08/04 06:38:34;;;;;;;2.23;1.80;;;15.80;99.90;;;;;;4941902;29;20260;-96
2022/08/04 06:41:08;;;;;;;1.73;1.60;;;15.70;99.90;;;;;;4936819;29;20259;-95
2022/08/04 06:43:40;;;;;;;2.67;2.13;;;15.70;99.90;;;;;;4928538;29;20208;-94
2022/08/04 06:46:23;;;;;;;2.47;1.57;;;15.80;99.90;;;;;;4938161;29;20228;-94
2022/08/04 06:48:56;;;;;;;1.97;1.77;;;15.80;99.90;;;;;;5026962;23;20236;-95
2022/08/04 06:51:34;;;;;;;2.47;1.80;;;15.80;99.90;;;;;;5004558;28;20234;-96
2022/08/04 06:54:18;;;;;;;2.30;1.80;;;15.80;99.90;;;;;;5004815;28;20214;-94
2022/08/04 06:56:52;;;;;;;2.50;1.83;;;15.90;99.90;;;;;;4999026;28;20256;-93
2022/08/04 06:59:25;;;;;;;2.10;1.90;;;15.90;99.90;;;;;;4999675;28;20288;-95
2022/08/04 07:02:00;;;;;;;2.47;2.27;;;15.80;99.90;;;;;;4999341;28;20266;-95
2022/08/04 07:04:32;;;;;;;2.30;2.10;;;15.90;99.90;;;;;;4999837;28;20308;-95
2022/08/04 07:07:04;;;;;;;2.30;2.10;;;15.90;99.90;;;;;;4999746;28;20218;-94
2022/08/04 07:09:36;;;;;;;2.27;2.07;;;15.90;99.90;;;;;;5002243;28;20222;-94
2022/08/04 07:12:09;;;;;;;2.50;2.30;;;16.00;99.90;;;;;;4999116;28;20203;-94
2022/08/04 07:14:42;;;;;;;2.57;2.37;;;16.00;99.90;;;;;;4999786;28;20221;-94
2022/08/04 07:17:18;;;;;;;3.27;2.30;;;16.00;99.90;;;;;;4981211;28;20213;-94
2022/08/04 07:19:51;;;;;;;2.37;2.00;;;16.00;99.90;;;;;;4982601;28;20213;-94
2022/08/04 07:22:26;;;;;;;3.37;2.40;;;15.90;99.90;;;;;;4985273;28;20242;-95
2022/08/04 07:24:57;;;;;;;3.53;2.47;;;15.90;99.90;;;;;;5000845;28;20266;-94
2022/08/04 07:27:32;;;;;;;2.43;2.10;;;15.90;99.90;;;;;;4999371;28;20216;-96
2022/08/04 07:30:19;;;;;;;3.03;2.13;;;15.90;99.90;;;;;;4999719;28;20214;-94
2022/08/04 07:32:56;;;;;;;2.70;2.40;;;15.90;99.90;;;;;;5001022;28;20213;-94
2022/08/04 07:35:30;;;;;;;2.60;2.40;;;15.90;99.90;;;;;;5000236;28;20230;-93
2022/08/04 07:38:24;;;;;;;2.50;2.30;;;15.90;99.90;;;;;;5001323;28;20305;-94
2022/08/04 07:40:58;;;;;;;2.90;2.57;;;15.90;99.90;;;;;;5000601;28;20215;-94
2022/08/04 07:43:31;;;;;;;2.63;2.40;;;15.90;99.90;;;;;;5005057;28;20206;-94
2022/08/04 07:46:04;;;;;;;3.50;2.87;;;15.90;99.90;;;;;;5004377;28;20233;-95
2022/08/04 07:49:04;;;;;;;3.10;2.80;;;15.90;99.90;;;;;;5008618;28;20206;-95
2022/08/04 07:51:39;;;;;;;2.80;2.60;;;15.90;99.90;;;;;;4997032;28;20210;-95
2022/08/04 07:54:12;;;;;;;3.27;2.73;;;15.90;99.90;;;;;;4981994;28;20213;-93
2022/08/04 07:56:45;;;;;;;3.20;2.90;;;15.90;99.90;;;;;;4982999;28;20302;-94
2022/08/04 07:59:18;;;;;;;3.27;2.97;;;15.90;99.90;;;;;;4981847;28;20207;-94
2022/08/04 08:01:51;;;;;;;5.37;2.80;;;16.00;99.90;;;;;;4979552;28;20215;-94
2022/08/04 08:04:24;;;;;;;6.47;2.87;;;16.00;99.90;;;;;;4983032;28;20215;-93
2022/08/04 08:07:00;;;;;;;4.30;3.00;;;16.00;99.90;;;;;;4999646;28;20214;-94
2022/08/04 08:09:35;;;;;;;4.10;2.87;;;15.90;99.90;;;;;;4998904;28;20225;-94
2022/08/04 08:12:13;;;;;;;2.77;2.57;;;15.90;99.90;;;;;;5000914;28;20215;-94
2022/08/04 08:14:58;;;;;;;2.77;2.50;;;15.90;99.90;;;;;;5045408;23;20244;-94
2022/08/04 08:17:29;;;;;;;3.77;2.30;;;15.80;99.90;;;;;;5018303;28;20241;-95
2022/08/04 08:20:21;;;;;;;3.53;2.90;;;15.90;99.90;;;;;;5017606;28;20210;-96
2022/08/04 08:23:02;;;;;;;2.53;2.33;;;15.80;99.90;;;;;;5018606;28;20209;-94
2022/08/04 08:25:34;;;;;;;2.57;2.37;;;15.90;99.90;;;;;;5018167;28;20212;-94
2022/08/04 08:28:07;;;;;;;2.90;2.67;;;15.90;99.90;;;;;;5017906;28;20499;-94
2022/08/04 08:30:39;;;;;;;3.43;2.87;;;15.90;99.90;;;;;;5018549;28;20232;-93
2022/08/04 08:33:15;;;;;;;3.23;2.93;;;15.90;99.90;;;;;;5018679;28;20233;-95
2022/08/04 08:35:54;;;;;;;2.67;2.37;;;16.00;99.90;;;;;;5018525;28;20233;-94
2022/08/04 08:38:39;;;;;;;2.40;2.20;;;16.00;99.90;;;;;;5019671;28;20634;-92
2022/08/04 08:41:36;;;;;;;3.10;2.87;;;16.10;99.90;;;;;;5019277;28;20213;-95
2022/08/04 08:44:34;;;;;;;2.90;2.60;;;16.10;99.90;;;;;;5028652;28;20225;-96
2022/08/04 08:47:21;;;;;;;2.60;2.23;;;16.10;99.90;;;;;;5034963;28;20224;-95
2022/08/04 08:50:19;;;;;;;3.20;2.43;;;16.20;99.90;;;;;;5035093;28;20256;-92
2022/08/04 08:53:03;;;;;;;3.13;2.80;;;16.20;99.90;;;;;;5020631;28;20198;-95
2022/08/04 08:55:56;;;;;;;5.13;3.00;;;16.10;99.90;;;;;;5020215;28;20209;-94
2022/08/04 08:58:46;;;;;;;3.83;2.30;;;16.00;99.90;;;;;;5034218;28;20269;-95
2022/08/04 09:01:38;;;;;;;2.90;2.60;;;16.00;99.90;;;;;;5036041;28;20240;-95
2022/08/04 09:04:51;;;;;;;2.87;2.57;;;16.00;99.90;;;;;;5019051;28;20213;-95
2022/08/04 09:07:38;;;;;;;2.70;2.50;;;15.90;99.90;;;;;;4978199;28;20289;-95
2022/08/04 09:10:18;;;;;;;4.90;2.87;;;15.90;99.90;;;;;;5017999;28;20619;-95
2022/08/04 09:12:57;;;;;;;3.37;2.80;;;15.90;99.90;;;;;;5018896;28;20680;-94
2022/08/04 09:15:35;;;;;;;3.57;2.77;;;15.80;99.90;;;;;;5031148;28;20655;-95
2022/08/04 09:18:14;;;;;;;2.80;2.50;;;15.80;99.90;;;;;;5037562;28;20290;-94
2022/08/04 09:20:50;;;;;;;4.27;3.10;;;15.80;99.90;;;;;;5035381;28;20205;-94
2022/08/04 09:23:29;;;;;;;3.60;2.90;;;15.70;99.90;;;;;;5038530;28;20209;-95
2022/08/04 09:26:07;;;;;;;2.83;2.63;;;15.70;99.90;;;;;;5039672;28;20212;-95
2022/08/04 09:28:55;;;;;;;2.93;2.60;;;15.80;99.90;;;;;;5037153;28;20216;-95
2022/08/04 09:31:35;;;;;;;3.47;2.90;;;15.80;99.90;;;;;;5037369;28;20255;-94
2022/08/04 09:34:36;;;;;;;3.67;2.60;;;15.80;99.90;;;;;;5038622;28;20295;-94
2022/08/04 09:37:15;;;;;;;4.30;3.00;;;15.70;99.90;;;;;;5040225;28;20855;-94
2022/08/04 09:40:00;;;;;;;3.30;2.73;;;15.80;99.90;;;;;;5040017;28;20217;-95
2022/08/04 09:42:46;;;;;;;3.03;2.63;;;15.70;99.90;;;;;;5034715;28;20213;-95
2022/08/04 09:45:34;;;;;;;2.80;2.60;;;15.80;99.90;;;;;;5038405;28;20304;-95
2022/08/04 09:48:19;;;;;;;3.90;2.77;;;15.80;99.90;;;;;;5055565;28;20205;-95
2022/08/04 09:50:57;;;;;;;2.90;2.53;;;15.80;99.90;;;;;;5055966;28;20258;-95
2022/08/04 09:53:38;;;;;;;3.17;2.70;;;15.80;99.90;;;;;;5044761;28;20205;-95
2022/08/04 09:56:20;;;;;;;2.93;2.63;;;15.80;99.90;;;;;;5039985;28;20228;-95
2022/08/04 09:59:02;;;;;;;2.77;2.30;;;15.80;99.90;;;;;;5039295;28;20252;-95
2022/08/04 10:01:39;;;;;;;2.90;2.60;;;15.70;99.90;;;;;;5039287;28;20290;-95
2022/08/04 10:04:13;;;;;;;2.60;2.40;;;15.80;99.90;;;;;;5023009;28;20283;-94
2022/08/04 10:07:10;;;;;;;3.60;2.40;;;15.80;99.90;;;;;;5020923;28;20232;-95
2022/08/04 10:09:53;;;;;;;2.70;2.50;;;15.90;99.90;;;;;;5020695;28;20214;-94
2022/08/04 10:12:40;;;;;;;2.53;2.33;;;15.80;99.90;;;;;;5020759;28;20627;-95
2022/08/04 10:15:17;;;;;;;2.53;2.20;;;15.80;99.90;;;;;;5000976;28;20222;-94
2022/08/04 10:18:10;;;;;;;3.43;2.30;;;15.80;99.90;;;;;;5001062;28;20240;-95
2022/08/04 10:21:05;;;;;;;3.73;2.50;;;15.90;99.90;;;;;;5000143;28;20198;-95
2022/08/04 10:24:20;;;;;;;2.50;2.30;;;15.80;99.90;;;;;;5017136;28;20643;-95
2022/08/04 10:26:57;;;;;;;4.77;2.60;;;15.90;99.90;;;;;;5019107;28;20218;-95
2022/08/04 10:29:33;;;;;;;2.63;2.43;;;15.90;99.90;;;;;;5019975;28;20238;-95
2022/08/04 10:32:15;;;;;;;2.80;2.27;;;15.90;99.90;;;;;;5019279;28;20217;-95
2022/08/04 10:35:02;;;;;;;3.27;2.20;;;16.10;99.90;;;;;;5037321;28;20232;-94
2022/08/04 10:37:40;;;;;;;3.03;2.37;;;16.10;99.90;;;;;;5039189;28;20233;-96
2022/08/04 10:40:39;;;;;;;2.90;2.60;;;15.90;99.90;;;;;;5037791;28;20343;-96
2022/08/04 10:43:18;;;;;;;3.37;2.70;;;15.80;99.90;;;;;;5038938;28;20189;-95
2022/08/04 10:45:57;;;;;;;2.80;2.60;;;15.80;99.90;;;;;;5039694;28;20209;-95
2022/08/04 10:48:37;;;;;;;2.70;2.50;;;15.80;99.90;;;;;;5039680;28;20240;-95
2022/08/04 10:51:36;;;;;;;2.90;2.40;;;15.90;99.90;;;;;;5039149;28;20190;-96
2022/08/04 10:54:34;;;;;;;2.80;2.60;;;15.90;99.90;;;;;;5025852;28;20213;-94
2022/08/04 10:57:12;;;;;;;2.33;2.10;;;15.70;99.90;;;;;;5021448;28;20264;-95
2022/08/04 10:59:54;;;;;;;2.47;2.27;;;15.80;99.90;;;;;;5022586;28;20224;-95
2022/08/04 11:02:39;;;;;;;2.40;2.20;;;15.80;99.90;;;;;;5019703;28;20218;-95
2022/08/04 11:05:25;;;;;;;2.90;2.50;;;15.80;99.90;;;;;;5021949;28;20620;-95
2022/08/04 11:08:04;;;;;;;2.97;2.37;;;15.80;99.90;;;;;;5021356;28;20252;-95
2022/08/04 11:10:49;;;;;;;2.80;2.47;;;15.80;99.90;;;;;;5000332;28;20206;-95
2022/08/04 11:13:22;;;;;;;2.57;2.37;;;15.80;99.90;;;;;;5001101;28;20731;-94
2022/08/04 11:16:03;;;;;;;2.90;2.63;;;15.80;99.90;;;;;;5020457;28;20286;-94
2022/08/04 11:18:44;;;;;;;3.83;2.27;;;15.80;99.90;;;;;;5040421;28;20631;-95
2022/08/04 11:21:21;;;;;;;3.50;2.60;;;15.90;99.90;;;;;;5038995;28;20645;-94
2022/08/04 11:24:03;;;;;;;2.73;2.47;;;15.90;99.90;;;;;;5023560;28;20213;-94
2022/08/04 11:26:43;;;;;;;2.73;2.30;;;15.90;99.90;;;;;;5023176;28;20210;-94
2022/08/04 11:29:23;;;;;;;3.57;2.40;;;16.00;99.90;;;;;;5033611;28;20197;-94
2022/08/04 11:31:59;;;;;;;3.03;2.20;;;16.00;99.90;;;;;;5037077;28;20263;-95
2022/08/04 11:34:31;;;;;;;2.70;2.20;;;16.00;99.90;;;;;;5038649;28;20208;-95
2022/08/04 11:37:10;;;;;;;2.60;2.40;;;16.00;99.90;;;;;;5038530;28;20224;-95
2022/08/04 11:39:52;;;;;;;2.17;2.00;;;16.10;99.90;;;;;;5038710;28;20197;-94
2022/08/04 11:42:28;;;;;;;2.33;2.13;;;16.10;99.90;;;;;;5037218;28;20229;-94
2022/08/04 11:45:04;;;;;;;5.83;2.40;;;16.00;99.90;;;;;;5038957;28;20217;-94
2022/08/04 11:47:42;;;;;;;2.20;2.00;;;16.00;99.90;;;;;;5038732;28;20201;-95
2022/08/04 11:50:23;;;;;;;2.57;2.10;;;16.00;99.90;;;;;;5038026;28;20197;-94
2022/08/04 11:52:57;;;;;;;1.93;1.80;;;15.90;99.90;;;;;;5038779;28;20190;-94
2022/08/04 11:58:25;;;;;;;2.30;2.10;;;15.90;99.90;;;;;;5037219;23;20245;-93
2022/08/04 12:01:18;;;;;;;2.23;2.03;;;15.80;99.90;;;;;;5026700;28;20232;-94
2022/08/04 12:04:03;;;;;;;2.07;1.87;;;15.80;99.90;;;;;;5019189;28;20561;-94
2022/08/04 12:06:44;;;;;;;2.10;1.90;;;15.70;99.90;;;;;;5018885;28;20257;-94
2022/08/04 12:09:49;;;;;;;2.40;2.20;;;15.70;99.90;;;;;;5017834;28;20209;-94
2022/08/04 12:12:29;;;;;;;2.20;2.00;;;15.80;99.90;;;;;;5018502;28;20746;-95
2022/08/04 12:15:14;;;;;;;2.17;1.97;;;15.70;99.90;;;;;;5017429;28;20229;-95
2022/08/04 12:17:53;;;;;;;2.20;2.00;;;15.80;99.90;;;;;;5018484;28;20225;-94
2022/08/04 12:20:28;;;;;;;2.20;2.00;;;15.80;99.90;;;;;;5017917;28;20232;-94
2022/08/04 12:23:18;;;;;;;1.87;1.77;;;15.80;99.90;;;;;;5018679;28;20307;-94
2022/08/04 12:25:57;;;;;;;2.17;1.93;;;15.70;99.90;;;;;;5018470;28;20205;-94
2022/08/04 12:28:34;;;;;;;2.47;1.90;;;15.70;99.90;;;;;;5018427;28;20658;-94
2022/08/04 12:31:31;;;;;;;1.90;1.80;;;15.80;99.90;;;;;;5017395;28;20295;-95
2022/08/04 12:34:08;;;;;;;2.20;2.00;;;15.70;99.90;;;;;;5018234;28;20244;-93
2022/08/04 12:36:46;;;;;;;1.87;1.77;;;15.60;99.90;;;;;;5018038;28;20300;-93
2022/08/04 12:39:20;;;;;;;1.77;1.67;;;15.60;99.90;;;;;;5018323;28;20259;-94
2022/08/04 12:42:02;;;;;;;1.83;1.67;;;15.70;99.90;;;;;;5017359;28;20213;-94
2022/08/04 12:44:36;;;;;;;1.53;1.43;;;15.70;99.90;;;;;;5017003;28;20210;-94
2022/08/04 12:47:14;;;;;;;3.37;1.87;;;15.70;99.90;;;;;;5018136;28;20217;-94
2022/08/04 12:50:07;;;;;;;1.73;1.63;;;15.80;99.90;;;;;;5017705;28;20288;-94
2022/08/04 12:52:48;;;;;;;2.37;2.00;;;15.70;99.90;;;;;;5017239;28;20627;-94
2022/08/04 12:55:36;;;;;;;1.77;1.60;;;15.70;99.90;;;;;;5017743;28;20214;-94
2022/08/04 12:58:17;;;;;;;2.20;2.00;;;15.60;99.90;;;;;;5016957;28;20310;-93
2022/08/04 13:01:13;;;;;;;1.80;1.70;;;15.60;99.90;;;;;;5015331;28;20215;-94
2022/08/04 13:04:14;;;;;;;1.67;1.50;;;15.60;99.90;;;;;;5018428;28;20288;-94
2022/08/04 13:06:52;;;;;;;1.77;1.60;;;15.60;99.90;;;;;;5018846;28;20228;-94
2022/08/04 13:09:27;;;;;;;1.67;1.57;;;15.60;99.90;;;;;;5019661;28;20258;-94
2022/08/04 13:12:03;;;;;;;1.93;1.73;;;15.60;99.90;;;;;;5017090;28;20279;-94
2022/08/04 13:14:37;;;;;;;1.97;1.77;;;15.60;99.90;;;;;;5018025;28;20209;-95
2022/08/04 13:17:08;;;;;;;1.73;1.47;;;15.50;99.90;;;;;;4983914;28;20209;-94
2022/08/04 13:19:48;;;;;;;1.70;1.60;;;15.50;99.90;;;;;;5015280;28;20233;-94
2022/08/04 13:22:29;;;;;;;3.17;1.80;;;15.50;99.90;;;;;;4998830;28;20272;-94
2022/08/04 13:25:02;;;;;;;2.50;1.70;;;15.50;99.90;;;;;;5001242;28;20625;-94
2022/08/04 13:27:54;;;;;;;2.03;1.83;;;15.50;99.90;;;;;;4998980;28;20237;-94
2022/08/04 13:30:28;;;;;;;2.27;1.50;;;15.50;99.90;;;;;;4997965;28;20214;-94
2022/08/04 13:33:03;;;;;;;1.90;1.80;;;15.50;99.90;;;;;;5000151;28;20210;-94
2022/08/04 13:35:44;;;;;;;1.90;1.70;;;15.50;99.90;;;;;;5000119;28;20252;-94
2022/08/04 13:38:26;;;;;;;2.10;1.90;;;15.50;99.90;;;;;;5001212;28;20245;-94
2022/08/04 13:41:01;;;;;;;1.83;1.60;;;15.50;99.90;;;;;;4997157;28;20213;-94
2022/08/04 13:43:42;;;;;;;3.13;1.83;;;15.60;99.90;;;;;;4998901;28;20218;-95
2022/08/04 13:46:37;;;;;;;2.13;1.70;;;15.70;99.90;;;;;;5000037;28;20253;-94
2022/08/04 13:49:11;;;;;;;2.23;1.57;;;15.50;99.90;;;;;;4999600;28;20209;-95
2022/08/04 13:52:06;;;;;;;2.43;1.50;;;15.50;99.90;;;;;;5002093;28;20273;-94
2022/08/04 13:54:44;;;;;;;1.90;1.50;;;15.50;99.90;;;;;;5020109;28;20209;-95
2022/08/04 13:57:19;;;;;;;1.80;1.40;;;15.60;99.90;;;;;;5022036;28;20217;-94
2022/08/04 13:59:55;;;;;;;1.70;1.43;;;15.60;99.90;;;;;;5028144;28;20244;-93
2022/08/04 14:02:34;;;;;;;2.40;1.57;;;15.60;99.90;;;;;;5034205;28;20201;-93
2022/08/04 14:05:11;;;;;;;2.40;1.50;;;15.60;99.90;;;;;;5034669;28;20242;-93
2022/08/04 14:07:55;;;;;;;1.93;1.63;;;15.60;99.90;;;;;;5024339;28;20219;-94
2022/08/04 14:10:27;;;;;;;2.57;1.63;;;15.60;99.90;;;;;;5018721;28;20225;-94
2022/08/04 14:12:58;;;;;;;2.43;1.33;;;15.50;99.90;;;;;;5020592;28;20214;-94
2022/08/04 14:15:36;;;;;;;1.67;1.57;;;15.50;99.90;;;;;;5025920;28;20231;-94
2022/08/04 14:18:30;;;;;;;3.77;1.30;;;15.50;99.90;;;;;;5037037;28;20236;-94
2022/08/04 14:21:04;;;;;;;1.40;1.30;;;15.50;99.90;;;;;;5035759;28;20746;-95
2022/08/04 14:23:50;;;;;;;1.60;1.33;;;15.70;99.90;;;;;;5038044;28;20216;-94
2022/08/04 14:26:24;;;;;;;3.10;1.50;;;15.70;99.90;;;;;;5036281;28;20205;-94
2022/08/04 14:29:13;;;;;;;1.43;1.20;;;15.70;99.90;;;;;;5036825;28;20213;-94
2022/08/04 14:32:05;;;;;;;2.57;1.37;;;15.80;99.90;;;;;;5035560;28;20213;-95
2022/08/04 14:34:45;;;;;;;1.80;1.70;;;16.00;99.90;;;;;;5036317;28;20213;-95
2022/08/04 14:37:21;;;;;;;1.83;1.47;;;16.00;99.90;;;;;;5038567;28;20216;-94
2022/08/04 14:39:55;;;;;;;2.07;1.17;;;16.10;99.90;;;;;;5040137;28;20228;-94
2022/08/04 14:42:49;;;;;;;1.23;1.07;;;15.90;99.90;;;;;;5039809;28;20205;-95
2022/08/04 14:45:41;;;;;;;1.33;1.10;;;15.90;99.90;;;;;;5042995;28;20208;-95
2022/08/04 14:48:25;;;;;;;2.53;1.33;;;15.90;99.90;;;;;;5040350;28;20680;-94
2022/08/04 14:53:58;;;;;;;1.10;1.00;;;16.00;99.90;;;;;;5052347;28;20741;-93
2022/08/04 14:56:42;;;;;;;1.37;1.10;;;15.90;99.90;;;;;;5051851;28;20217;-94
2022/08/04 14:59:20;;;;;;;3.07;1.27;;;16.00;99.90;;;;;;5052315;28;20241;-94
2022/08/04 15:01:52;;;;;;;3.13;1.40;;;16.00;99.90;;;;;;5049960;28;20209;-94